sensor_id;sensor_type;location;lat;lon;timestamp;P1;durP1;ratioP1;P2;durP2;ratioP2
75990;SDS011;64673;52.276;10.560;2023-03-21T00:01:21;21.23;;;10.55;;
75990;SDS011;64673;52.276;10.560;2023-03-21T00:03:47;20.05;;;10.35;;
75990;SDS011;64673;52.276;10.560;2023-03-21T00:06:13;22.38;;;9.88;;
75990;SDS011;64673;52.276;10.560;2023-03-21T00:08:39;20.48;;;9.77;;
75990;SDS011;64673;52.276;10.560;2023-03-21T00:11:06;20.45;;;9.18;;
75990;SDS011;64673;52.276;10.560;2023-03-21T00:13:34;21.45;;;10.15;;
75990;SDS011;64673;52.276;10.560;2023-03-21T00:16:09;19.42;;;9.55;;
75990;SDS011;64673;52.276;10.560;2023-03-21T00:18:41;19.98;;;9.98;;
75990;SDS011;64673;52.276;10.560;2023-03-21T00:21:10;23.17;;;11.00;;
75990;SDS011;64673;52.276;10.560;2023-03-21T00:23:39;22.73;;;10.48;;
75990;SDS011;64673;52.276;10.560;2023-03-21T00:26:05;19.08;;;9.40;;
75990;SDS011;64673;52.276;10.560;2023-03-21T00:28:34;21.13;;;10.45;;
75990;SDS011;64673;52.276;10.560;2023-03-21T00:31:00;20.83;;;9.98;;
75990;SDS011;64673;52.276;10.560;2023-03-21T00:33:26;23.45;;;9.60;;
75990;SDS011;64673;52.276;10.560;2023-03-21T00:35:52;20.85;;;9.55;;
75990;SDS011;64673;52.276;10.560;2023-03-21T00:38:18;24.33;;;11.52;;
75990;SDS011;64673;52.276;10.560;2023-03-21T00:40:43;24.45;;;10.52;;
75990;SDS011;64673;52.276;10.560;2023-03-21T00:43:09;26.73;;;10.65;;
75990;SDS011;64673;52.276;10.560;2023-03-21T00:45:45;21.42;;;10.77;;
75990;SDS011;64673;52.276;10.560;2023-03-21T00:48:11;24.13;;;11.45;;
75990;SDS011;64673;52.276;10.560;2023-03-21T00:50:37;26.80;;;12.15;;
75990;SDS011;64673;52.276;10.560;2023-03-21T00:53:03;33.17;;;12.20;;
75990;SDS011;64673;52.276;10.560;2023-03-21T00:55:28;30.70;;;12.23;;
75990;SDS011;64673;52.276;10.560;2023-03-21T00:57:54;28.80;;;13.18;;
75990;SDS011;64673;52.276;10.560;2023-03-21T01:00:19;26.75;;;11.70;;
75990;SDS011;64673;52.276;10.560;2023-03-21T01:02:45;30.92;;;12.38;;
75990;SDS011;64673;52.276;10.560;2023-03-21T01:05:23;26.17;;;11.48;;
75990;SDS011;64673;52.276;10.560;2023-03-21T01:08:10;31.80;;;14.13;;
75990;SDS011;64673;52.276;10.560;2023-03-21T01:10:39;37.58;;;14.25;;
75990;SDS011;64673;52.276;10.560;2023-03-21T01:13:06;30.08;;;14.10;;
75990;SDS011;64673;52.276;10.560;2023-03-21T01:15:33;32.50;;;12.90;;
75990;SDS011;64673;52.276;10.560;2023-03-21T01:17:59;29.02;;;12.68;;
75990;SDS011;64673;52.276;10.560;2023-03-21T01:20:25;29.98;;;12.95;;
75990;SDS011;64673;52.276;10.560;2023-03-21T01:22:52;31.15;;;13.90;;
75990;SDS011;64673;52.276;10.560;2023-03-21T01:25:17;31.33;;;14.25;;
75990;SDS011;64673;52.276;10.560;2023-03-21T01:27:43;31.15;;;14.07;;
75990;SDS011;64673;52.276;10.560;2023-03-21T01:30:10;39.03;;;14.65;;
75990;SDS011;64673;52.276;10.560;2023-03-21T01:32:36;35.65;;;14.07;;
75990;SDS011;64673;52.276;10.560;2023-03-21T01:35:01;34.53;;;13.00;;
75990;SDS011;64673;52.276;10.560;2023-03-21T01:37:26;33.55;;;14.63;;
75990;SDS011;64673;52.276;10.560;2023-03-21T01:39:52;31.42;;;14.30;;
75990;SDS011;64673;52.276;10.560;2023-03-21T01:42:17;30.88;;;13.10;;
75990;SDS011;64673;52.276;10.560;2023-03-21T01:44:56;35.88;;;13.90;;
75990;SDS011;64673;52.276;10.560;2023-03-21T01:47:25;36.67;;;15.05;;
75990;SDS011;64673;52.276;10.560;2023-03-21T01:49:51;34.25;;;13.98;;
75990;SDS011;64673;52.276;10.560;2023-03-21T01:52:21;34.20;;;13.60;;
75990;SDS011;64673;52.276;10.560;2023-03-21T01:54:51;37.53;;;15.10;;
75990;SDS011;64673;52.276;10.560;2023-03-21T01:59:56;31.83;;;13.27;;
75990;SDS011;64673;52.276;10.560;2023-03-21T02:02:30;34.28;;;13.23;;
75990;SDS011;64673;52.276;10.560;2023-03-21T02:04:56;32.97;;;12.80;;
75990;SDS011;64673;52.276;10.560;2023-03-21T02:07:28;38.38;;;14.65;;
75990;SDS011;64673;52.276;10.560;2023-03-21T02:09:55;40.63;;;13.70;;
75990;SDS011;64673;52.276;10.560;2023-03-21T02:12:22;32.55;;;14.00;;
75990;SDS011;64673;52.276;10.560;2023-03-21T02:14:48;34.95;;;14.23;;
75990;SDS011;64673;52.276;10.560;2023-03-21T02:27:36;34.38;;;12.52;;
75990;SDS011;64673;52.276;10.560;2023-03-21T02:33:09;31.73;;;12.88;;
75990;SDS011;64673;52.276;10.560;2023-03-21T02:41:46;29.08;;;10.80;;
75990;SDS011;64673;52.276;10.560;2023-03-21T02:47:00;25.67;;;10.13;;
75990;SDS011;64673;52.276;10.560;2023-03-21T02:52:08;20.95;;;9.63;;
75990;SDS011;64673;52.276;10.560;2023-03-21T02:54:38;30.77;;;10.68;;
75990;SDS011;64673;52.276;10.560;2023-03-21T02:57:07;29.35;;;11.32;;
75990;SDS011;64673;52.276;10.560;2023-03-21T02:59:33;25.80;;;11.05;;
75990;SDS011;64673;52.276;10.560;2023-03-21T03:02:00;29.70;;;11.52;;
75990;SDS011;64673;52.276;10.560;2023-03-21T03:04:27;28.75;;;12.15;;
75990;SDS011;64673;52.276;10.560;2023-03-21T03:09:58;28.80;;;10.85;;
75990;SDS011;64673;52.276;10.560;2023-03-21T03:23:45;31.80;;;11.52;;
75990;SDS011;64673;52.276;10.560;2023-03-21T03:29:14;24.92;;;11.43;;
75990;SDS011;64673;52.276;10.560;2023-03-21T03:31:44;22.38;;;10.30;;
75990;SDS011;64673;52.276;10.560;2023-03-21T03:34:16;38.08;;;11.73;;
75990;SDS011;64673;52.276;10.560;2023-03-21T03:36:46;22.42;;;10.85;;
75990;SDS011;64673;52.276;10.560;2023-03-21T03:39:16;25.10;;;10.82;;
75990;SDS011;64673;52.276;10.560;2023-03-21T03:41:50;25.92;;;11.13;;
75990;SDS011;64673;52.276;10.560;2023-03-21T03:44:24;27.63;;;11.55;;
75990;SDS011;64673;52.276;10.560;2023-03-21T03:46:56;22.45;;;9.90;;
75990;SDS011;64673;52.276;10.560;2023-03-21T03:51:54;27.65;;;9.32;;
75990;SDS011;64673;52.276;10.560;2023-03-21T03:54:29;22.05;;;10.52;;
75990;SDS011;64673;52.276;10.560;2023-03-21T03:56:58;19.77;;;9.07;;
75990;SDS011;64673;52.276;10.560;2023-03-21T03:59:25;20.13;;;9.15;;
75990;SDS011;64673;52.276;10.560;2023-03-21T04:01:50;19.65;;;9.55;;
75990;SDS011;64673;52.276;10.560;2023-03-21T04:04:16;21.10;;;8.80;;
75990;SDS011;64673;52.276;10.560;2023-03-21T04:06:42;21.60;;;9.35;;
75990;SDS011;64673;52.276;10.560;2023-03-21T04:09:09;19.02;;;9.27;;
75990;SDS011;64673;52.276;10.560;2023-03-21T04:11:35;19.70;;;8.90;;
75990;SDS011;64673;52.276;10.560;2023-03-21T04:14:00;18.67;;;9.52;;
75990;SDS011;64673;52.276;10.560;2023-03-21T04:16:25;22.25;;;9.48;;
75990;SDS011;64673;52.276;10.560;2023-03-21T04:18:52;21.92;;;8.43;;
75990;SDS011;64673;52.276;10.560;2023-03-21T04:21:17;21.52;;;8.90;;
75990;SDS011;64673;52.276;10.560;2023-03-21T04:23:43;19.13;;;10.07;;
75990;SDS011;64673;52.276;10.560;2023-03-21T04:26:08;18.60;;;9.77;;
75990;SDS011;64673;52.276;10.560;2023-03-21T04:28:35;20.30;;;8.63;;
75990;SDS011;64673;52.276;10.560;2023-03-21T04:31:01;19.92;;;9.40;;
75990;SDS011;64673;52.276;10.560;2023-03-21T04:33:29;19.55;;;9.05;;
75990;SDS011;64673;52.276;10.560;2023-03-21T04:35:54;21.88;;;9.23;;
75990;SDS011;64673;52.276;10.560;2023-03-21T04:38:23;19.15;;;8.88;;
75990;SDS011;64673;52.276;10.560;2023-03-21T04:40:54;19.33;;;8.80;;
75990;SDS011;64673;52.276;10.560;2023-03-21T04:43:20;19.83;;;9.10;;
75990;SDS011;64673;52.276;10.560;2023-03-21T04:45:47;24.98;;;8.93;;
75990;SDS011;64673;52.276;10.560;2023-03-21T04:48:13;22.73;;;9.23;;
75990;SDS011;64673;52.276;10.560;2023-03-21T04:50:38;19.58;;;8.48;;
75990;SDS011;64673;52.276;10.560;2023-03-21T04:53:03;22.52;;;9.85;;
75990;SDS011;64673;52.276;10.560;2023-03-21T04:55:29;18.65;;;8.70;;
75990;SDS011;64673;52.276;10.560;2023-03-21T04:57:55;22.83;;;9.52;;
75990;SDS011;64673;52.276;10.560;2023-03-21T05:00:21;22.25;;;9.30;;
75990;SDS011;64673;52.276;10.560;2023-03-21T05:02:47;20.42;;;8.73;;
75990;SDS011;64673;52.276;10.560;2023-03-21T05:05:13;20.25;;;9.23;;
75990;SDS011;64673;52.276;10.560;2023-03-21T05:07:39;20.17;;;9.00;;
75990;SDS011;64673;52.276;10.560;2023-03-21T05:10:05;24.65;;;9.88;;
75990;SDS011;64673;52.276;10.560;2023-03-21T05:12:32;20.25;;;9.00;;
75990;SDS011;64673;52.276;10.560;2023-03-21T05:14:58;21.20;;;9.40;;
75990;SDS011;64673;52.276;10.560;2023-03-21T05:17:23;22.02;;;9.45;;
75990;SDS011;64673;52.276;10.560;2023-03-21T05:19:49;17.13;;;8.23;;
75990;SDS011;64673;52.276;10.560;2023-03-21T05:22:17;18.95;;;8.77;;
75990;SDS011;64673;52.276;10.560;2023-03-21T05:24:43;22.67;;;9.15;;
75990;SDS011;64673;52.276;10.560;2023-03-21T05:27:14;19.40;;;9.18;;
75990;SDS011;64673;52.276;10.560;2023-03-21T05:29:59;19.92;;;9.23;;
75990;SDS011;64673;52.276;10.560;2023-03-21T05:32:34;21.20;;;9.77;;
75990;SDS011;64673;52.276;10.560;2023-03-21T05:35:00;23.80;;;9.43;;
75990;SDS011;64673;52.276;10.560;2023-03-21T05:37:26;23.00;;;9.48;;
75990;SDS011;64673;52.276;10.560;2023-03-21T05:39:52;22.23;;;8.95;;
75990;SDS011;64673;52.276;10.560;2023-03-21T05:42:17;22.85;;;8.23;;
75990;SDS011;64673;52.276;10.560;2023-03-21T05:44:44;20.33;;;8.90;;
75990;SDS011;64673;52.276;10.560;2023-03-21T05:47:10;21.20;;;8.45;;
75990;SDS011;64673;52.276;10.560;2023-03-21T05:49:39;22.35;;;8.70;;
75990;SDS011;64673;52.276;10.560;2023-03-21T05:52:05;19.77;;;8.38;;
75990;SDS011;64673;52.276;10.560;2023-03-21T05:54:31;20.25;;;8.50;;
75990;SDS011;64673;52.276;10.560;2023-03-21T05:56:56;20.70;;;8.68;;
75990;SDS011;64673;52.276;10.560;2023-03-21T05:59:22;19.08;;;7.88;;
75990;SDS011;64673;52.276;10.560;2023-03-21T06:01:47;24.77;;;8.43;;
75990;SDS011;64673;52.276;10.560;2023-03-21T06:04:12;19.08;;;9.13;;
75990;SDS011;64673;52.276;10.560;2023-03-21T06:06:38;18.88;;;8.85;;
75990;SDS011;64673;52.276;10.560;2023-03-21T06:09:03;15.75;;;7.75;;
75990;SDS011;64673;52.276;10.560;2023-03-21T06:11:31;16.60;;;7.57;;
75990;SDS011;64673;52.276;10.560;2023-03-21T06:13:58;17.88;;;7.68;;
75990;SDS011;64673;52.276;10.560;2023-03-21T06:16:24;17.63;;;7.38;;
75990;SDS011;64673;52.276;10.560;2023-03-21T06:18:49;16.52;;;7.45;;
75990;SDS011;64673;52.276;10.560;2023-03-21T06:21:15;16.40;;;7.25;;
75990;SDS011;64673;52.276;10.560;2023-03-21T06:23:40;18.75;;;8.52;;
75990;SDS011;64673;52.276;10.560;2023-03-21T06:26:06;21.25;;;8.20;;
75990;SDS011;64673;52.276;10.560;2023-03-21T06:28:31;18.10;;;7.22;;
75990;SDS011;64673;52.276;10.560;2023-03-21T06:30:57;12.93;;;6.55;;
75990;SDS011;64673;52.276;10.560;2023-03-21T06:33:22;15.30;;;6.93;;
75990;SDS011;64673;52.276;10.560;2023-03-21T06:35:50;16.15;;;6.45;;
75990;SDS011;64673;52.276;10.560;2023-03-21T06:38:16;15.77;;;7.03;;
75990;SDS011;64673;52.276;10.560;2023-03-21T06:40:41;16.10;;;7.30;;
75990;SDS011;64673;52.276;10.560;2023-03-21T06:43:09;12.75;;;6.50;;
75990;SDS011;64673;52.276;10.560;2023-03-21T06:45:35;19.05;;;7.57;;
75990;SDS011;64673;52.276;10.560;2023-03-21T06:48:00;16.40;;;7.75;;
75990;SDS011;64673;52.276;10.560;2023-03-21T06:50:25;14.73;;;6.70;;
75990;SDS011;64673;52.276;10.560;2023-03-21T06:52:51;15.68;;;7.38;;
75990;SDS011;64673;52.276;10.560;2023-03-21T06:55:17;20.40;;;8.00;;
75990;SDS011;64673;52.276;10.560;2023-03-21T06:57:43;17.38;;;6.85;;
75990;SDS011;64673;52.276;10.560;2023-03-21T07:00:09;14.50;;;7.43;;
75990;SDS011;64673;52.276;10.560;2023-03-21T07:02:35;19.70;;;7.53;;
75990;SDS011;64673;52.276;10.560;2023-03-21T07:05:00;15.05;;;6.97;;
75990;SDS011;64673;52.276;10.560;2023-03-21T07:07:26;15.85;;;6.60;;
75990;SDS011;64673;52.276;10.560;2023-03-21T07:09:53;15.00;;;7.93;;
75990;SDS011;64673;52.276;10.560;2023-03-21T07:12:18;17.75;;;6.55;;
75990;SDS011;64673;52.276;10.560;2023-03-21T07:14:43;15.95;;;7.65;;
75990;SDS011;64673;52.276;10.560;2023-03-21T07:17:09;15.50;;;6.57;;
75990;SDS011;64673;52.276;10.560;2023-03-21T07:19:35;14.13;;;6.40;;
75990;SDS011;64673;52.276;10.560;2023-03-21T07:22:00;13.82;;;7.07;;
75990;SDS011;64673;52.276;10.560;2023-03-21T07:24:25;14.40;;;6.63;;
75990;SDS011;64673;52.276;10.560;2023-03-21T07:26:51;15.57;;;7.13;;
75990;SDS011;64673;52.276;10.560;2023-03-21T07:29:17;13.27;;;6.53;;
75990;SDS011;64673;52.276;10.560;2023-03-21T07:31:45;12.93;;;6.57;;
75990;SDS011;64673;52.276;10.560;2023-03-21T07:34:11;16.73;;;6.88;;
75990;SDS011;64673;52.276;10.560;2023-03-21T07:36:36;20.02;;;7.60;;
75990;SDS011;64673;52.276;10.560;2023-03-21T07:39:01;15.27;;;6.53;;
75990;SDS011;64673;52.276;10.560;2023-03-21T07:41:28;16.65;;;8.35;;
75990;SDS011;64673;52.276;10.560;2023-03-21T07:43:53;12.80;;;6.78;;
75990;SDS011;64673;52.276;10.560;2023-03-21T07:46:19;13.43;;;5.90;;
75990;SDS011;64673;52.276;10.560;2023-03-21T07:48:44;13.40;;;6.75;;
75990;SDS011;64673;52.276;10.560;2023-03-21T07:51:10;11.88;;;6.35;;
75990;SDS011;64673;52.276;10.560;2023-03-21T07:53:35;13.10;;;6.50;;
75990;SDS011;64673;52.276;10.560;2023-03-21T07:56:00;11.60;;;6.97;;
75990;SDS011;64673;52.276;10.560;2023-03-21T07:58:26;12.73;;;6.20;;
75990;SDS011;64673;52.276;10.560;2023-03-21T08:00:52;14.65;;;6.70;;
75990;SDS011;64673;52.276;10.560;2023-03-21T08:03:19;16.67;;;6.60;;
75990;SDS011;64673;52.276;10.560;2023-03-21T08:05:45;12.88;;;6.57;;
75990;SDS011;64673;52.276;10.560;2023-03-21T08:08:10;18.55;;;6.75;;
75990;SDS011;64673;52.276;10.560;2023-03-21T08:10:36;14.77;;;6.25;;
75990;SDS011;64673;52.276;10.560;2023-03-21T08:13:02;14.82;;;6.63;;
75990;SDS011;64673;52.276;10.560;2023-03-21T08:15:28;11.32;;;6.15;;
75990;SDS011;64673;52.276;10.560;2023-03-21T08:17:54;16.85;;;6.60;;
75990;SDS011;64673;52.276;10.560;2023-03-21T08:20:20;16.38;;;6.50;;
75990;SDS011;64673;52.276;10.560;2023-03-21T08:22:47;16.30;;;7.00;;
75990;SDS011;64673;52.276;10.560;2023-03-21T08:25:14;14.65;;;6.28;;
75990;SDS011;64673;52.276;10.560;2023-03-21T08:30:08;14.60;;;5.93;;
75990;SDS011;64673;52.276;10.560;2023-03-21T08:32:36;15.63;;;6.75;;
75990;SDS011;64673;52.276;10.560;2023-03-21T08:35:02;14.13;;;6.03;;
75990;SDS011;64673;52.276;10.560;2023-03-21T08:37:31;15.35;;;5.93;;
75990;SDS011;64673;52.276;10.560;2023-03-21T08:39:56;12.95;;;5.57;;
75990;SDS011;64673;52.276;10.560;2023-03-21T08:42:21;16.35;;;6.28;;
75990;SDS011;64673;52.276;10.560;2023-03-21T08:44:47;14.95;;;6.30;;
75990;SDS011;64673;52.276;10.560;2023-03-21T08:47:13;19.90;;;6.22;;
75990;SDS011;64673;52.276;10.560;2023-03-21T08:49:39;14.35;;;6.30;;
75990;SDS011;64673;52.276;10.560;2023-03-21T08:52:06;17.55;;;7.25;;
75990;SDS011;64673;52.276;10.560;2023-03-21T08:54:31;12.98;;;6.07;;
75990;SDS011;64673;52.276;10.560;2023-03-21T08:56:56;10.68;;;6.15;;
75990;SDS011;64673;52.276;10.560;2023-03-21T08:59:22;13.82;;;6.22;;
75990;SDS011;64673;52.276;10.560;2023-03-21T09:01:47;14.02;;;5.75;;
75990;SDS011;64673;52.276;10.560;2023-03-21T09:04:13;16.05;;;6.43;;
75990;SDS011;64673;52.276;10.560;2023-03-21T09:06:42;14.60;;;6.18;;
75990;SDS011;64673;52.276;10.560;2023-03-21T09:09:09;13.40;;;5.85;;
75990;SDS011;64673;52.276;10.560;2023-03-21T09:11:35;13.23;;;5.82;;
75990;SDS011;64673;52.276;10.560;2023-03-21T09:14:00;12.15;;;5.65;;
75990;SDS011;64673;52.276;10.560;2023-03-21T09:16:26;13.10;;;4.93;;
75990;SDS011;64673;52.276;10.560;2023-03-21T09:18:51;10.20;;;5.25;;
75990;SDS011;64673;52.276;10.560;2023-03-21T09:21:19;13.93;;;5.38;;
75990;SDS011;64673;52.276;10.560;2023-03-21T09:23:46;11.63;;;5.20;;
75990;SDS011;64673;52.276;10.560;2023-03-21T09:26:17;12.38;;;6.03;;
75990;SDS011;64673;52.276;10.560;2023-03-21T09:28:43;11.88;;;5.15;;
75990;SDS011;64673;52.276;10.560;2023-03-21T09:31:11;9.80;;;5.25;;
75990;SDS011;64673;52.276;10.560;2023-03-21T09:33:40;13.88;;;5.47;;
75990;SDS011;64673;52.276;10.560;2023-03-21T09:36:07;12.13;;;5.13;;
75990;SDS011;64673;52.276;10.560;2023-03-21T09:38:41;9.73;;;4.85;;
75990;SDS011;64673;52.276;10.560;2023-03-21T09:41:11;12.45;;;5.22;;
75990;SDS011;64673;52.276;10.560;2023-03-21T09:46:30;15.45;;;6.28;;
75990;SDS011;64673;52.276;10.560;2023-03-21T09:49:06;13.38;;;5.95;;
75990;SDS011;64673;52.276;10.560;2023-03-21T09:51:40;13.70;;;6.78;;
75990;SDS011;64673;52.276;10.560;2023-03-21T09:57:11;19.77;;;6.32;;
75990;SDS011;64673;52.276;10.560;2023-03-21T09:59:53;14.25;;;6.25;;
75990;SDS011;64673;52.276;10.560;2023-03-21T10:05:24;17.13;;;6.93;;
75990;SDS011;64673;52.276;10.560;2023-03-21T10:08:03;14.23;;;6.60;;
75990;SDS011;64673;52.276;10.560;2023-03-21T10:10:33;16.65;;;6.65;;
75990;SDS011;64673;52.276;10.560;2023-03-21T10:13:02;20.27;;;6.63;;
75990;SDS011;64673;52.276;10.560;2023-03-21T10:15:34;16.10;;;6.80;;
75990;SDS011;64673;52.276;10.560;2023-03-21T10:18:01;13.27;;;6.68;;
75990;SDS011;64673;52.276;10.560;2023-03-21T10:20:35;13.27;;;6.22;;
75990;SDS011;64673;52.276;10.560;2023-03-21T10:23:03;17.42;;;7.07;;
75990;SDS011;64673;52.276;10.560;2023-03-21T10:25:32;13.20;;;6.32;;
75990;SDS011;64673;52.276;10.560;2023-03-21T10:28:04;17.95;;;7.20;;
75990;SDS011;64673;52.276;10.560;2023-03-21T10:30:38;17.85;;;7.07;;
75990;SDS011;64673;52.276;10.560;2023-03-21T10:33:07;15.40;;;6.88;;
75990;SDS011;64673;52.276;10.560;2023-03-21T10:35:36;14.20;;;6.20;;
75990;SDS011;64673;52.276;10.560;2023-03-21T10:38:03;15.45;;;5.75;;
75990;SDS011;64673;52.276;10.560;2023-03-21T10:40:30;14.60;;;6.30;;
75990;SDS011;64673;52.276;10.560;2023-03-21T10:42:56;18.17;;;6.20;;
75990;SDS011;64673;52.276;10.560;2023-03-21T10:45:38;17.33;;;6.78;;
75990;SDS011;64673;52.276;10.560;2023-03-21T10:48:06;16.17;;;7.05;;
75990;SDS011;64673;52.276;10.560;2023-03-21T10:50:31;13.57;;;6.57;;
75990;SDS011;64673;52.276;10.560;2023-03-21T10:52:57;10.63;;;5.72;;
75990;SDS011;64673;52.276;10.560;2023-03-21T10:55:28;10.05;;;5.57;;
75990;SDS011;64673;52.276;10.560;2023-03-21T10:58:03;15.18;;;6.00;;
75990;SDS011;64673;52.276;10.560;2023-03-21T11:00:36;10.43;;;4.97;;
75990;SDS011;64673;52.276;10.560;2023-03-21T11:03:05;13.23;;;5.25;;
75990;SDS011;64673;52.276;10.560;2023-03-21T11:05:39;10.63;;;4.60;;
75990;SDS011;64673;52.276;10.560;2023-03-21T11:08:15;12.27;;;5.07;;
75990;SDS011;64673;52.276;10.560;2023-03-21T11:13:18;11.52;;;4.97;;
75990;SDS011;64673;52.276;10.560;2023-03-21T11:18:24;10.02;;;5.15;;
75990;SDS011;64673;52.276;10.560;2023-03-21T11:20:55;12.15;;;5.70;;
75990;SDS011;64673;52.276;10.560;2023-03-21T11:23:27;12.55;;;5.57;;
75990;SDS011;64673;52.276;10.560;2023-03-21T11:25:54;11.65;;;5.32;;
75990;SDS011;64673;52.276;10.560;2023-03-21T11:28:24;13.40;;;5.40;;
75990;SDS011;64673;52.276;10.560;2023-03-21T11:30:57;17.77;;;5.72;;
75990;SDS011;64673;52.276;10.560;2023-03-21T11:33:25;13.27;;;6.07;;
75990;SDS011;64673;52.276;10.560;2023-03-21T11:35:59;10.70;;;5.07;;
75990;SDS011;64673;52.276;10.560;2023-03-21T11:38:29;12.30;;;5.45;;
75990;SDS011;64673;52.276;10.560;2023-03-21T11:41:04;15.52;;;5.97;;
75990;SDS011;64673;52.276;10.560;2023-03-21T11:43:31;11.32;;;5.13;;
75990;SDS011;64673;52.276;10.560;2023-03-21T11:48:28;12.20;;;5.60;;
75990;SDS011;64673;52.276;10.560;2023-03-21T12:07:01;13.15;;;5.90;;
75990;SDS011;64673;52.276;10.560;2023-03-21T12:34:07;12.98;;;5.80;;
75990;SDS011;64673;52.276;10.560;2023-03-21T12:39:42;13.38;;;6.03;;
75990;SDS011;64673;52.276;10.560;2023-03-21T12:44:59;12.20;;;5.85;;
75990;SDS011;64673;52.276;10.560;2023-03-21T12:47:29;9.27;;;4.95;;
75990;SDS011;64673;52.276;10.560;2023-03-21T12:52:43;11.38;;;5.75;;
75990;SDS011;64673;52.276;10.560;2023-03-21T12:55:19;12.82;;;6.15;;
75990;SDS011;64673;52.276;10.560;2023-03-21T12:57:52;16.88;;;6.22;;
75990;SDS011;64673;52.276;10.560;2023-03-21T13:00:34;12.18;;;6.38;;
75990;SDS011;64673;52.276;10.560;2023-03-21T13:03:10;10.85;;;5.78;;
75990;SDS011;64673;52.276;10.560;2023-03-21T13:05:46;16.77;;;7.03;;
75990;SDS011;64673;52.276;10.560;2023-03-21T13:10:45;14.85;;;7.18;;
75990;SDS011;64673;52.276;10.560;2023-03-21T13:16:03;14.80;;;6.63;;
75990;SDS011;64673;52.276;10.560;2023-03-21T13:26:50;16.73;;;7.30;;
75990;SDS011;64673;52.276;10.560;2023-03-21T13:29:49;16.77;;;6.47;;
75990;SDS011;64673;52.276;10.560;2023-03-21T13:34:53;15.48;;;7.03;;
75990;SDS011;64673;52.276;10.560;2023-03-21T13:37:19;21.38;;;7.63;;
75990;SDS011;64673;52.276;10.560;2023-03-21T13:39:45;20.27;;;7.93;;
75990;SDS011;64673;52.276;10.560;2023-03-21T13:42:19;14.65;;;6.95;;
75990;SDS011;64673;52.276;10.560;2023-03-21T13:44:48;18.13;;;8.20;;
75990;SDS011;64673;52.276;10.560;2023-03-21T13:53:26;16.85;;;7.93;;
75990;SDS011;64673;52.276;10.560;2023-03-21T13:55:40;23.85;;;8.00;;
75990;SDS011;64673;52.276;10.560;2023-03-21T13:58:30;18.33;;;8.23;;
75990;SDS011;64673;52.276;10.560;2023-03-21T14:03:40;21.55;;;8.07;;
75990;SDS011;64673;52.276;10.560;2023-03-21T14:06:08;19.17;;;8.70;;
75990;SDS011;64673;52.276;10.560;2023-03-21T14:08:34;17.35;;;8.05;;
75990;SDS011;64673;52.276;10.560;2023-03-21T14:11:03;22.02;;;8.02;;
75990;SDS011;64673;52.276;10.560;2023-03-21T14:13:32;18.65;;;8.48;;
75990;SDS011;64673;52.276;10.560;2023-03-21T14:15:59;17.80;;;8.75;;
75990;SDS011;64673;52.276;10.560;2023-03-21T14:18:38;18.60;;;7.60;;
75990;SDS011;64673;52.276;10.560;2023-03-21T14:23:54;17.15;;;8.63;;
75990;SDS011;64673;52.276;10.560;2023-03-21T14:26:25;19.98;;;9.45;;
75990;SDS011;64673;52.276;10.560;2023-03-21T14:28:53;19.92;;;8.60;;
75990;SDS011;64673;52.276;10.560;2023-03-21T14:31:19;19.40;;;8.13;;
75990;SDS011;64673;52.276;10.560;2023-03-21T14:33:51;18.70;;;8.25;;
75990;SDS011;64673;52.276;10.560;2023-03-21T14:36:22;18.52;;;8.25;;
75990;SDS011;64673;52.276;10.560;2023-03-21T14:39:04;22.98;;;9.20;;
75990;SDS011;64673;52.276;10.560;2023-03-21T14:41:32;22.85;;;8.98;;
75990;SDS011;64673;52.276;10.560;2023-03-21T14:46:26;22.73;;;8.55;;
75990;SDS011;64673;52.276;10.560;2023-03-21T14:48:51;22.45;;;8.30;;
75990;SDS011;64673;52.276;10.560;2023-03-21T14:51:17;22.55;;;9.77;;
75990;SDS011;64673;52.276;10.560;2023-03-21T14:53:42;20.98;;;9.07;;
75990;SDS011;64673;52.276;10.560;2023-03-21T14:56:09;18.50;;;9.23;;
75990;SDS011;64673;52.276;10.560;2023-03-21T14:58:46;15.05;;;7.45;;
75990;SDS011;64673;52.276;10.560;2023-03-21T15:01:13;19.48;;;7.93;;
75990;SDS011;64673;52.276;10.560;2023-03-21T15:03:44;21.25;;;9.73;;
75990;SDS011;64673;52.276;10.560;2023-03-21T15:06:12;19.08;;;8.07;;
75990;SDS011;64673;52.276;10.560;2023-03-21T15:08:38;18.55;;;8.57;;
75990;SDS011;64673;52.276;10.560;2023-03-21T15:11:05;22.15;;;9.57;;
75990;SDS011;64673;52.276;10.560;2023-03-21T15:13:35;22.90;;;9.45;;
75990;SDS011;64673;52.276;10.560;2023-03-21T15:16:09;19.08;;;8.73;;
75990;SDS011;64673;52.276;10.560;2023-03-21T15:18:36;19.40;;;9.50;;
75990;SDS011;64673;52.276;10.560;2023-03-21T15:23:41;21.95;;;9.45;;
75990;SDS011;64673;52.276;10.560;2023-03-21T15:26:12;20.17;;;8.00;;
75990;SDS011;64673;52.276;10.560;2023-03-21T15:28:40;19.88;;;9.40;;
75990;SDS011;64673;52.276;10.560;2023-03-21T15:31:15;19.92;;;8.90;;
75990;SDS011;64673;52.276;10.560;2023-03-21T15:33:49;17.30;;;8.45;;
75990;SDS011;64673;52.276;10.560;2023-03-21T15:36:20;17.08;;;8.82;;
75990;SDS011;64673;52.276;10.560;2023-03-21T15:38:49;20.27;;;9.18;;
75990;SDS011;64673;52.276;10.560;2023-03-21T15:43:43;19.77;;;8.93;;
75990;SDS011;64673;52.276;10.560;2023-03-21T15:46:14;17.40;;;8.90;;
75990;SDS011;64673;52.276;10.560;2023-03-21T15:51:39;19.52;;;8.25;;
75990;SDS011;64673;52.276;10.560;2023-03-21T15:54:14;18.30;;;8.75;;
75990;SDS011;64673;52.276;10.560;2023-03-21T15:56:41;18.98;;;9.15;;
75990;SDS011;64673;52.276;10.560;2023-03-21T15:59:11;23.60;;;9.80;;
75990;SDS011;64673;52.276;10.560;2023-03-21T16:01:43;18.85;;;8.73;;
75990;SDS011;64673;52.276;10.560;2023-03-21T16:04:10;20.90;;;8.35;;
75990;SDS011;64673;52.276;10.560;2023-03-21T16:06:49;15.43;;;7.88;;
75990;SDS011;64673;52.276;10.560;2023-03-21T16:09:22;13.57;;;7.13;;
75990;SDS011;64673;52.276;10.560;2023-03-21T16:11:51;15.05;;;6.75;;
75990;SDS011;64673;52.276;10.560;2023-03-21T16:14:18;17.65;;;8.18;;
75990;SDS011;64673;52.276;10.560;2023-03-21T16:16:45;15.15;;;7.03;;
75990;SDS011;64673;52.276;10.560;2023-03-21T16:19:11;12.88;;;5.97;;
75990;SDS011;64673;52.276;10.560;2023-03-21T16:21:37;14.70;;;7.05;;
75990;SDS011;64673;52.276;10.560;2023-03-21T16:24:03;19.30;;;7.00;;
75990;SDS011;64673;52.276;10.560;2023-03-21T16:26:31;11.20;;;6.47;;
75990;SDS011;64673;52.276;10.560;2023-03-21T16:28:58;13.43;;;6.88;;
75990;SDS011;64673;52.276;10.560;2023-03-21T16:31:24;13.45;;;6.60;;
75990;SDS011;64673;52.276;10.560;2023-03-21T16:33:51;14.63;;;7.40;;
75990;SDS011;64673;52.276;10.560;2023-03-21T16:36:22;15.02;;;6.78;;
75990;SDS011;64673;52.276;10.560;2023-03-21T16:38:49;13.18;;;7.30;;
75990;SDS011;64673;52.276;10.560;2023-03-21T16:41:17;13.10;;;6.85;;
75990;SDS011;64673;52.276;10.560;2023-03-21T16:43:43;16.48;;;7.25;;
75990;SDS011;64673;52.276;10.560;2023-03-21T16:46:16;17.90;;;7.55;;
75990;SDS011;64673;52.276;10.560;2023-03-21T16:48:44;12.65;;;5.80;;
75990;SDS011;64673;52.276;10.560;2023-03-21T16:53:36;10.20;;;6.00;;
75990;SDS011;64673;52.276;10.560;2023-03-21T16:56:02;12.40;;;5.82;;
75990;SDS011;64673;52.276;10.560;2023-03-21T16:58:29;13.15;;;6.25;;
75990;SDS011;64673;52.276;10.560;2023-03-21T17:00:54;15.90;;;6.18;;